Arlington Heights, Massachusetts
Current Conditions -  °F | °C
As of 2:56 PM on Thursday 23 Oct 2014 (Local Time) from KBED Reporting Station
Light Rain Light Rain  
Wind Chill: 53°   Ceiling: 500
Heat Index: 53°   Visibility: 4mi
Dew Point: 52°   Wind: 20mph
Humidity: 96%   Direction: 30°NNE
Pressure: 29.61"   Gusts: 28mph
Location:  42.42°N, 71.17°W
Report Text: KBED 231856Z 03017G24KT 4SM -RA BR BKN005 OVC009 12/11 A2961 RMK AO2 PK WND 03026/1831 SLP040 P0000 T01170111
Loading
Personal Weather Stations






























Interactive Weather Map
Tropical Storm Tracking
New forecast layout! Learn more

10-Day Weather Forecast

Advertisements
Track Severe Weather on mobile